Time;durP1;ratioP1;P1;durP2;ratioP2;P2;SDS_P1;SDS_P2;PMS_P1;PMS_P2;Temp;Humidity;BMP_temperature;BMP_pressure;BME280_temperature;BME280_humidity;BME280_pressure;Samples;Min_cycle;Max_cycle;Signal;HPM_P1;HPM_P2
2022/07/18 00:01:41;;;;;;;1.85;1.27;;;21.40;79.30;;;;;;4178296;28;20045;-66
2022/07/18 00:03:42;;;;;;;2.17;0.95;;;21.30;78.70;;;;;;4178901;28;20068;-66
2022/07/18 00:05:42;;;;;;;1.98;1.30;;;21.40;78.90;;;;;;4178041;28;20033;-65
2022/07/18 00:07:43;;;;;;;1.33;0.88;;;21.40;79.00;;;;;;4177851;28;20499;-66
2022/07/18 00:09:43;;;;;;;2.13;1.20;;;21.30;80.40;;;;;;4160605;28;20030;-66
2022/07/18 00:11:45;;;;;;;2.63;1.23;;;21.30;80.50;;;;;;4177143;28;20075;-66
2022/07/18 00:13:45;;;;;;;2.67;1.20;;;21.30;84.00;;;;;;4178628;28;20058;-66
2022/07/18 00:15:46;;;;;;;2.00;1.10;;;21.30;80.50;;;;;;4178403;28;20503;-66
2022/07/18 00:17:47;;;;;;;1.90;1.30;;;21.20;80.90;;;;;;4177612;28;20067;-66
2022/07/18 00:19:47;;;;;;;1.70;1.20;;;21.20;81.60;;;;;;4178103;28;20108;-66
2022/07/18 00:21:48;;;;;;;3.50;1.13;;;21.20;81.70;;;;;;4177795;28;20044;-66
2022/07/18 00:23:49;;;;;;;2.05;1.00;;;21.20;82.20;;;;;;4178610;28;20112;-65
2022/07/18 00:25:49;;;;;;;1.30;0.90;;;21.20;82.40;;;;;;4178181;28;20119;-66
2022/07/18 00:27:50;;;;;;;1.60;1.10;;;21.10;82.50;;;;;;4176973;28;20459;-66
2022/07/18 00:29:50;;;;;;;1.23;0.68;;;21.10;81.40;;;;;;4177807;28;20083;-66
2022/07/18 00:31:51;;;;;;;1.25;1.05;;;21.10;81.80;;;;;;4177483;28;20036;-66
2022/07/18 00:33:52;;;;;;;1.15;0.93;;;21.10;81.30;;;;;;4177862;28;20029;-67
2022/07/18 00:35:52;;;;;;;2.00;1.08;;;21.00;81.90;;;;;;4177097;28;20033;-66
2022/07/18 00:37:53;;;;;;;1.50;0.90;;;21.00;84.90;;;;;;4176443;28;20049;-66
2022/07/18 00:39:54;;;;;;;2.30;1.30;;;21.00;82.80;;;;;;4177648;28;20434;-66
2022/07/18 00:41:54;;;;;;;3.10;1.10;;;20.90;81.60;;;;;;4177263;28;20064;-66
2022/07/18 00:43:57;;;;;;;1.67;0.90;;;20.90;79.90;;;;;;4177990;28;20048;-65
2022/07/18 00:45:57;;;;;;;1.52;1.00;;;20.80;81.00;;;;;;4177423;28;20033;-66
2022/07/18 00:47:58;;;;;;;1.70;1.10;;;20.70;82.50;;;;;;4166890;28;20128;-66
2022/07/18 00:49:59;;;;;;;1.95;1.25;;;20.70;82.50;;;;;;4176865;28;20104;-66
2022/07/18 00:52:00;;;;;;;1.27;0.90;;;20.70;83.20;;;;;;4177029;28;20044;-66
2022/07/18 00:54:00;;;;;;;3.78;1.45;;;20.70;83.20;;;;;;4177712;28;20029;-66
2022/07/18 00:56:02;;;;;;;1.65;1.08;;;20.70;83.10;;;;;;4177411;28;20040;-66
2022/07/18 00:58:02;;;;;;;2.30;0.95;;;20.60;84.10;;;;;;4167928;28;20071;-66
2022/07/18 01:02:31;;;;;;;2.00;1.20;;;20.60;81.70;;;;;;4176761;28;20033;-65
2022/07/18 01:04:31;;;;;;;1.63;1.02;;;20.60;83.60;;;;;;4177308;28;20082;-66
2022/07/18 01:06:32;;;;;;;2.65;1.20;;;20.50;83.90;;;;;;4175420;28;20492;-66
2022/07/18 01:08:34;;;;;;;2.40;0.90;;;20.50;84.00;;;;;;4176446;28;20025;-66
2022/07/18 01:10:35;;;;;;;1.15;0.73;;;20.50;83.60;;;;;;4177097;28;20025;-66
2022/07/18 01:12:36;;;;;;;1.00;0.80;;;20.50;82.30;;;;;;4177582;28;20905;-66
2022/07/18 01:14:37;;;;;;;3.22;1.17;;;20.40;81.60;;;;;;4175027;28;20086;-65
2022/07/18 01:16:37;;;;;;;1.30;0.70;;;20.30;82.60;;;;;;4176426;28;20037;-66
2022/07/18 01:18:44;;;;;;;3.33;1.00;;;20.30;85.00;;;;;;4176447;28;20039;-66
2022/07/18 01:20:45;;;;;;;4.88;1.20;;;20.30;83.60;;;;;;4176716;28;20053;-66
2022/07/18 01:22:45;;;;;;;1.63;0.85;;;20.30;83.90;;;;;;4177175;28;20037;-66
2022/07/18 01:24:46;;;;;;;2.10;1.00;;;20.30;85.70;;;;;;4177456;28;20036;-65
2022/07/18 01:26:47;;;;;;;3.55;1.10;;;20.20;84.70;;;;;;4175983;28;20045;-66
2022/07/18 01:28:48;;;;;;;1.77;1.15;;;20.20;84.50;;;;;;4176368;28;20422;-66
2022/07/18 01:30:48;;;;;;;2.38;1.20;;;20.20;84.50;;;;;;4176796;28;20056;-66
2022/07/18 01:32:58;;;;;;;2.22;0.93;;;20.20;86.50;;;;;;4177388;28;20052;-65
2022/07/18 01:34:58;;;;;;;1.92;1.05;;;20.20;84.90;;;;;;4174659;28;20024;-65
2022/07/18 01:37:00;;;;;;;1.80;0.93;;;20.20;84.90;;;;;;4176289;28;20041;-65
2022/07/18 01:39:00;;;;;;;1.83;1.00;;;20.20;85.00;;;;;;4176459;28;20080;-65
2022/07/18 01:41:01;;;;;;;1.95;0.93;;;20.10;85.40;;;;;;4176748;28;20052;-66
2022/07/18 01:43:02;;;;;;;3.35;1.15;;;20.10;86.10;;;;;;4177400;28;20033;-66
2022/07/18 01:45:03;;;;;;;1.05;0.95;;;20.10;86.40;;;;;;4177448;28;20052;-66
2022/07/18 01:47:05;;;;;;;1.80;1.10;;;20.10;85.70;;;;;;4176733;28;20032;-65
2022/07/18 01:49:06;;;;;;;;;;;20.00;85.50;;;;;;4177022;28;20033;-65
2022/07/18 01:51:10;;;;;;;0.75;0.65;;;20.00;85.50;;;;;;4177153;28;20013;-65
2022/07/18 01:53:10;;;;;;;4.15;1.05;;;20.00;85.20;;;;;;4177423;28;20087;-65
2022/07/18 01:55:11;;;;;;;2.47;0.93;;;20.00;84.60;;;;;;4176707;28;20419;-65
2022/07/18 01:57:12;;;;;;;1.95;0.90;;;19.90;85.40;;;;;;4176702;28;20045;-65
2022/07/18 01:59:13;;;;;;;2.75;0.85;;;19.80;87.00;;;;;;4176272;28;20388;-65
2022/07/18 02:01:13;;;;;;;1.33;1.15;;;19.80;87.60;;;;;;4176917;28;20041;-66
2022/07/18 02:03:14;;;;;;;1.45;0.90;;;19.80;87.70;;;;;;4177298;28;20044;-66
2022/07/18 02:05:14;;;;;;;1.48;0.82;;;19.80;87.00;;;;;;4176841;28;20029;-66
2022/07/18 02:07:15;;;;;;;3.88;1.20;;;19.80;86.60;;;;;;4176485;28;20037;-65
2022/07/18 02:09:16;;;;;;;2.45;1.17;;;19.70;87.90;;;;;;4176657;28;20030;-66
2022/07/18 02:11:16;;;;;;;2.80;1.05;;;19.70;87.00;;;;;;4176861;28;20423;-66
2022/07/18 02:13:19;;;;;;;1.30;1.02;;;19.70;87.10;;;;;;4177312;28;20379;-65
2022/07/18 02:15:20;;;;;;;2.17;1.23;;;19.70;86.60;;;;;;4176640;28;20093;-65
2022/07/18 02:17:21;;;;;;;1.90;1.00;;;19.70;87.50;;;;;;4176511;28;20487;-65
2022/07/18 02:19:21;;;;;;;1.30;1.00;;;19.70;87.90;;;;;;4176543;28;20430;-65
2022/07/18 02:21:22;;;;;;;2.10;1.17;;;19.70;87.70;;;;;;4176789;28;20033;-65
2022/07/18 02:23:23;;;;;;;2.30;1.00;;;19.70;87.50;;;;;;4177409;28;20107;-65
2022/07/18 02:25:23;;;;;;;1.48;1.00;;;19.70;88.70;;;;;;4176372;28;20450;-65
2022/07/18 02:27:24;;;;;;;2.58;1.20;;;19.70;87.20;;;;;;4176266;28;20140;-65
2022/07/18 02:29:25;;;;;;;1.83;1.15;;;19.60;86.30;;;;;;4176561;28;20049;-66
2022/07/18 02:31:25;;;;;;;2.50;0.95;;;19.60;87.90;;;;;;4176723;28;20034;-66
2022/07/18 02:33:26;;;;;;;1.08;0.98;;;19.60;86.90;;;;;;4176195;28;20033;-66
2022/07/18 02:35:27;;;;;;;1.48;0.90;;;19.60;86.70;;;;;;4177748;28;20049;-66
2022/07/18 02:37:27;;;;;;;1.58;0.80;;;19.50;85.80;;;;;;4179765;28;20037;-66
2022/07/18 02:39:29;;;;;;;2.22;1.17;;;19.50;86.30;;;;;;4179445;28;20086;-65
2022/07/18 02:41:29;;;;;;;2.13;1.10;;;19.40;87.00;;;;;;4179639;28;20036;-65
2022/07/18 02:43:30;;;;;;;4.75;1.20;;;19.40;87.50;;;;;;4180104;28;20037;-65
2022/07/18 02:45:30;;;;;;;1.33;1.00;;;19.40;88.00;;;;;;4179709;28;20033;-65
2022/07/18 02:47:31;;;;;;;2.63;0.98;;;19.40;88.30;;;;;;4179103;28;20071;-65
2022/07/18 02:49:32;;;;;;;2.55;1.42;;;19.40;88.40;;;;;;4179375;28;20037;-65
2022/07/18 02:51:33;;;;;;;2.20;1.27;;;19.40;88.60;;;;;;4179331;28;20106;-65
2022/07/18 02:53:33;;;;;;;1.90;1.40;;;19.30;88.50;;;;;;4179916;28;20041;-65
2022/07/18 02:55:34;;;;;;;2.25;1.23;;;19.30;87.40;;;;;;4179284;28;20056;-65
2022/07/18 02:57:35;;;;;;;1.80;1.30;;;19.30;87.30;;;;;;4179311;28;20040;-65
2022/07/18 02:59:35;;;;;;;2.28;1.17;;;19.30;87.10;;;;;;4179348;28;20488;-65
2022/07/18 03:01:36;;;;;;;1.48;1.10;;;19.30;87.90;;;;;;4179065;28;20478;-65
2022/07/18 03:03:37;;;;;;;1.83;1.05;;;19.20;88.70;;;;;;4179916;28;20033;-65
2022/07/18 03:05:37;;;;;;;4.05;1.33;;;19.20;89.20;;;;;;4179298;28;20502;-65
2022/07/18 03:07:38;;;;;;;2.45;1.05;;;19.20;89.00;;;;;;4178963;28;20488;-65
2022/07/18 03:09:39;;;;;;;2.05;1.20;;;19.20;89.50;;;;;;4179079;28;20021;-65
2022/07/18 03:11:40;;;;;;;2.13;1.20;;;19.10;87.30;;;;;;4179044;28;20393;-65
2022/07/18 03:13:40;;;;;;;1.35;0.93;;;19.10;87.90;;;;;;4179683;28;20029;-65
2022/07/18 03:15:41;;;;;;;1.38;0.90;;;19.10;87.80;;;;;;4179078;28;20037;-65
2022/07/18 03:17:42;;;;;;;2.22;1.40;;;19.10;88.00;;;;;;4174130;28;20083;-65
2022/07/18 03:19:42;;;;;;;2.92;1.20;;;19.10;87.80;;;;;;4178990;28;20373;-65
2022/07/18 03:21:43;;;;;;;2.22;1.33;;;19.10;87.50;;;;;;4179206;28;20057;-65
2022/07/18 03:23:43;;;;;;;2.60;1.30;;;19.10;87.50;;;;;;4179608;28;20037;-65
2022/07/18 03:25:44;;;;;;;2.20;1.30;;;19.00;87.20;;;;;;4178775;28;20041;-65
2022/07/18 03:27:45;;;;;;;2.20;1.63;;;19.00;87.20;;;;;;4178649;28;20444;-65
2022/07/18 03:29:45;;;;;;;2.72;1.30;;;19.00;87.30;;;;;;4178583;28;20022;-65
2022/07/18 03:31:46;;;;;;;1.98;1.13;;;19.00;89.70;;;;;;4178771;28;20075;-65
2022/07/18 03:33:47;;;;;;;2.40;1.00;;;19.00;88.90;;;;;;4179433;28;20450;-65
2022/07/18 03:35:47;;;;;;;2.28;1.10;;;18.90;88.90;;;;;;4178813;28;20399;-65
2022/07/18 03:37:48;;;;;;;1.55;1.10;;;18.90;88.20;;;;;;4178434;28;20112;-65
2022/07/18 03:39:48;;;;;;;2.42;1.52;;;18.90;88.30;;;;;;4177625;28;20396;-65
2022/07/18 03:41:51;;;;;;;2.28;0.95;;;18.90;88.80;;;;;;4178486;28;20091;-65
2022/07/18 03:43:53;;;;;;;;;;;18.90;89.30;;;;;;4179609;28;20029;-65
2022/07/18 03:45:54;;;;;;;1.85;1.05;;;18.90;89.60;;;;;;4178628;28;19991;-65
2022/07/18 03:47:55;;;;;;;1.98;1.13;;;18.80;89.40;;;;;;4177652;28;20063;-66
2022/07/18 03:49:55;;;;;;;2.28;1.15;;;18.80;88.80;;;;;;4179013;28;20483;-66
2022/07/18 03:51:56;;;;;;;1.70;1.10;;;18.80;89.20;;;;;;4178642;28;20049;-65
2022/07/18 03:53:57;;;;;;;3.17;1.13;;;18.80;88.70;;;;;;4179224;28;20079;-65
2022/07/18 03:55:58;;;;;;;2.85;1.23;;;18.80;88.70;;;;;;4178636;28;20025;-65
2022/07/18 03:57:59;;;;;;;3.42;1.00;;;18.80;89.50;;;;;;4177871;28;20057;-65
2022/07/18 03:59:59;;;;;;;3.35;1.30;;;18.80;88.30;;;;;;4178548;28;20032;-65
2022/07/18 04:02:00;;;;;;;2.03;1.13;;;18.80;88.70;;;;;;4177243;28;20699;-65
2022/07/18 04:04:00;;;;;;;2.17;1.30;;;18.80;89.50;;;;;;4182646;28;20033;-65
2022/07/18 04:06:01;;;;;;;1.75;1.17;;;18.80;89.20;;;;;;4185030;28;20036;-65
2022/07/18 04:08:02;;;;;;;3.33;1.50;;;18.70;88.30;;;;;;4176177;28;20140;-65
2022/07/18 04:10:04;;;;;;;5.47;1.60;;;18.70;88.80;;;;;;4177462;28;20086;-65
2022/07/18 04:12:05;;;;;;;1.98;1.10;;;18.70;89.00;;;;;;4177237;28;20048;-65
2022/07/18 04:14:05;;;;;;;2.10;1.20;;;18.60;90.00;;;;;;4177083;28;20036;-65
2022/07/18 04:16:06;;;;;;;2.38;1.30;;;18.60;90.10;;;;;;4177817;28;20500;-65
2022/07/18 04:18:08;;;;;;;1.70;1.13;;;18.60;90.20;;;;;;4177136;28;20055;-65
2022/07/18 04:20:09;;;;;;;2.25;1.08;;;18.60;90.10;;;;;;4176845;28;20114;-65
2022/07/18 04:22:10;;;;;;;1.80;1.15;;;18.60;89.80;;;;;;4180996;28;20036;-65
2022/07/18 04:24:11;;;;;;;2.17;0.90;;;18.60;90.20;;;;;;4178144;28;20128;-65
2022/07/18 04:26:11;;;;;;;1.90;1.30;;;18.60;90.20;;;;;;4175692;28;20056;-65
2022/07/18 04:28:13;;;;;;;4.20;1.88;;;18.60;90.30;;;;;;4176494;28;20049;-65
2022/07/18 04:30:15;;;;;;;2.83;1.13;;;18.70;90.50;;;;;;4177563;28;20048;-66
2022/07/18 04:32:16;;;;;;;2.03;1.10;;;18.70;90.30;;;;;;4178077;28;20049;-65
2022/07/18 04:34:17;;;;;;;1.73;1.23;;;18.70;90.40;;;;;;4176456;28;20033;-65
2022/07/18 04:36:18;;;;;;;2.13;1.40;;;18.70;90.40;;;;;;4177031;28;20059;-66
2022/07/18 04:38:18;;;;;;;4.03;1.38;;;18.70;90.90;;;;;;4176744;28;20029;-65
2022/07/18 04:40:19;;;;;;;2.63;1.10;;;18.70;90.90;;;;;;4177479;28;21413;-65
2022/07/18 04:42:20;;;;;;;3.28;1.52;;;18.70;91.00;;;;;;4175386;28;20033;-65
2022/07/18 04:44:20;;;;;;;3.03;1.08;;;18.70;91.10;;;;;;4177792;28;20060;-65
2022/07/18 04:46:21;;;;;;;2.20;1.35;;;18.70;91.00;;;;;;4176896;28;20488;-65
2022/07/18 04:48:21;;;;;;;2.47;1.35;;;18.80;91.20;;;;;;4176534;28;20045;-65
2022/07/18 04:50:23;;;;;;;2.35;1.20;;;18.80;91.70;;;;;;4177280;28;21109;-65
2022/07/18 04:52:24;;;;;;;2.10;1.15;;;18.80;91.20;;;;;;4177111;28;20044;-65
2022/07/18 04:54:24;;;;;;;2.25;1.08;;;18.80;91.80;;;;;;4176957;28;20033;-65
2022/07/18 04:56:25;;;;;;;2.15;1.10;;;18.70;91.80;;;;;;4175042;28;20033;-65
2022/07/18 04:58:25;;;;;;;1.73;1.20;;;18.70;92.00;;;;;;4177676;28;20057;-66
2022/07/18 05:00:26;;;;;;;2.40;1.25;;;18.70;92.30;;;;;;4177305;28;20049;-65
2022/07/18 05:02:27;;;;;;;2.22;1.35;;;18.70;92.50;;;;;;4177730;28;20033;-65
2022/07/18 05:04:28;;;;;;;1.95;1.38;;;18.70;92.80;;;;;;4175453;28;20120;-65
2022/07/18 05:06:29;;;;;;;1.85;1.38;;;18.80;92.60;;;;;;4175245;28;20131;-65
2022/07/18 05:08:29;;;;;;;2.53;1.33;;;18.80;92.70;;;;;;4176541;28;20057;-65
2022/07/18 05:10:30;;;;;;;2.65;1.45;;;18.80;93.00;;;;;;4159464;28;20033;-65
2022/07/18 05:12:31;;;;;;;4.85;1.50;;;18.90;93.30;;;;;;4177625;28;20065;-65
2022/07/18 05:14:31;;;;;;;1.90;1.23;;;18.90;93.60;;;;;;4177682;28;20516;-65
2022/07/18 05:16:32;;;;;;;2.47;1.48;;;18.90;94.00;;;;;;4177003;28;20068;-65
2022/07/18 05:18:32;;;;;;;3.08;1.25;;;19.00;94.30;;;;;;4176005;28;20036;-65
2022/07/18 05:20:33;;;;;;;1.95;1.35;;;19.00;94.40;;;;;;4178894;28;20431;-65
2022/07/18 05:22:35;;;;;;;2.00;1.60;;;19.10;94.70;;;;;;4175115;28;20041;-65
2022/07/18 05:24:35;;;;;;;3.45;1.60;;;19.10;94.80;;;;;;4176599;28;20037;-65
2022/07/18 05:26:36;;;;;;;3.53;1.65;;;19.20;94.90;;;;;;4175771;28;20431;-66
2022/07/18 05:28:37;;;;;;;4.18;1.70;;;19.20;95.10;;;;;;4176601;28;20045;-66
2022/07/18 05:30:38;;;;;;;2.75;1.50;;;19.20;95.30;;;;;;4177222;28;20041;-66
2022/07/18 05:32:39;;;;;;;3.63;1.70;;;19.30;95.20;;;;;;4177907;28;20143;-66
2022/07/18 05:34:40;;;;;;;3.10;1.60;;;19.20;91.80;;;;;;4178554;28;20054;-66
2022/07/18 05:36:41;;;;;;;5.55;2.22;;;19.30;91.90;;;;;;4157335;28;20029;-66
2022/07/18 05:38:41;;;;;;;3.50;1.48;;;19.40;91.80;;;;;;4176306;28;20500;-66
2022/07/18 05:40:42;;;;;;;3.65;2.03;;;19.40;90.60;;;;;;4166360;28;20040;-66
2022/07/18 05:42:43;;;;;;;6.20;2.28;;;19.50;90.40;;;;;;4175836;28;20052;-66
2022/07/18 05:44:44;;;;;;;4.53;1.60;;;19.50;90.50;;;;;;4175081;28;20026;-66
2022/07/18 05:46:44;;;;;;;3.20;1.60;;;19.60;89.10;;;;;;4175948;28;20107;-66
2022/07/18 05:48:46;;;;;;;3.90;1.80;;;19.60;90.50;;;;;;4176394;28;20029;-66
2022/07/18 05:50:46;;;;;;;2.83;1.33;;;19.70;89.50;;;;;;4176452;28;20044;-66
2022/07/18 05:52:47;;;;;;;4.32;1.55;;;19.70;87.90;;;;;;4175832;28;20064;-66
2022/07/18 05:54:48;;;;;;;3.17;1.30;;;19.80;88.80;;;;;;4175932;28;20033;-66
2022/07/18 05:56:50;;;;;;;3.22;1.73;;;19.90;88.70;;;;;;4175689;28;20025;-66
2022/07/18 05:58:51;;;;;;;5.53;2.30;;;20.00;88.80;;;;;;4177276;28;20124;-66
2022/07/18 06:00:51;;;;;;;2.28;1.23;;;20.10;87.90;;;;;;4176148;28;20017;-66
2022/07/18 06:02:52;;;;;;;5.22;1.45;;;20.10;87.10;;;;;;4176907;28;20419;-66
2022/07/18 06:04:52;;;;;;;3.50;1.60;;;20.20;86.60;;;;;;4175852;28;20052;-66
2022/07/18 06:06:53;;;;;;;4.72;1.90;;;20.40;86.70;;;;;;4175073;28;20056;-66
2022/07/18 06:08:54;;;;;;;5.38;1.65;;;20.70;84.60;;;;;;4174367;28;20465;-68
2022/07/18 06:10:54;;;;;;;1.95;1.25;;;21.10;84.50;;;;;;4178365;28;20059;-69
2022/07/18 06:12:55;;;;;;;4.30;1.27;;;21.40;83.60;;;;;;4174762;28;20486;-69
2022/07/18 06:14:56;;;;;;;3.15;1.40;;;21.80;84.10;;;;;;4196831;28;20074;-69
2022/07/18 06:16:57;;;;;;;3.28;1.33;;;22.20;81.50;;;;;;4179349;28;20033;-69
2022/07/18 06:18:58;;;;;;;3.30;1.30;;;22.70;79.90;;;;;;4160817;28;20033;-69
2022/07/18 06:20:59;;;;;;;2.97;1.42;;;23.10;79.90;;;;;;4179795;28;20543;-69
2022/07/18 06:22:59;;;;;;;3.55;1.50;;;23.50;79.40;;;;;;4180059;28;20025;-70
2022/07/18 06:25:01;;;;;;;2.30;1.10;;;23.80;78.50;;;;;;4179502;28;20043;-70
2022/07/18 06:27:01;;;;;;;3.53;1.58;;;24.20;76.90;;;;;;4177344;28;20496;-70
2022/07/18 06:29:02;;;;;;;2.88;1.45;;;24.50;73.80;;;;;;4175959;28;20032;-69
2022/07/18 06:31:03;;;;;;;1.75;1.20;;;24.80;70.50;;;;;;4179508;28;20029;-70
2022/07/18 06:33:05;;;;;;;2.13;1.20;;;25.10;69.90;;;;;;4178173;28;20033;-69
2022/07/18 06:35:07;;;;;;;3.42;1.52;;;25.30;68.10;;;;;;4177661;28;20029;-71
2022/07/18 06:37:08;;;;;;;3.03;1.23;;;25.50;67.60;;;;;;4176883;28;20029;-69
2022/07/18 06:39:10;;;;;;;4.20;1.10;;;25.60;66.90;;;;;;4177982;28;20040;-69
2022/07/18 06:41:11;;;;;;;1.88;1.00;;;25.90;65.90;;;;;;4161532;28;20099;-69
2022/07/18 06:43:13;;;;;;;4.53;1.08;;;25.90;65.30;;;;;;4182978;28;20028;-69
2022/07/18 06:45:14;;;;;;;;;;;25.90;64.90;;;;;;4185243;28;20083;-70
2022/07/18 06:47:14;;;;;;;2.10;1.10;;;26.00;64.10;;;;;;4176528;28;20360;-69
2022/07/18 06:49:15;;;;;;;2.42;1.20;;;26.10;65.20;;;;;;4178812;28;20025;-69
2022/07/18 06:51:16;;;;;;;2.47;0.98;;;26.10;64.20;;;;;;4173736;28;20037;-69
2022/07/18 06:53:16;;;;;;;1.85;1.05;;;26.20;63.70;;;;;;4178864;28;20036;-69
2022/07/18 06:55:17;;;;;;;5.47;1.40;;;26.20;64.20;;;;;;4180356;28;20037;-70
2022/07/18 06:57:20;;;;;;;2.80;1.40;;;26.20;64.40;;;;;;4176790;28;20051;-69
2022/07/18 06:59:20;;;;;;;;;;;26.30;64.50;;;;;;4162767;28;20026;-70
2022/07/18 07:01:21;;;;;;;1.58;1.00;;;26.30;63.80;;;;;;4178726;28;19939;-70
2022/07/18 07:03:22;;;;;;;3.58;1.33;;;26.30;63.80;;;;;;4175613;28;20567;-70
2022/07/18 07:05:22;;;;;;;2.03;1.10;;;26.40;64.90;;;;;;4179180;28;20045;-70
2022/07/18 07:07:23;;;;;;;2.20;1.05;;;26.40;65.90;;;;;;4179213;28;20041;-70
2022/07/18 07:09:24;;;;;;;3.40;1.30;;;26.40;64.00;;;;;;4181346;28;20368;-69
2022/07/18 07:11:24;;;;;;;2.75;1.25;;;26.50;64.60;;;;;;4192636;28;20029;-69
2022/07/18 07:13:26;;;;;;;4.28;1.73;;;26.60;65.10;;;;;;4179852;28;20033;-70
2022/07/18 07:15:26;;;;;;;3.25;1.00;;;26.60;64.30;;;;;;4179332;28;20111;-69
2022/07/18 07:17:29;;;;;;;2.03;1.10;;;26.70;64.20;;;;;;4178887;28;20468;-70
2022/07/18 07:19:30;;;;;;;1.67;0.80;;;26.70;64.10;;;;;;4178949;28;20480;-70
2022/07/18 07:21:31;;;;;;;3.28;1.60;;;26.70;65.10;;;;;;4178730;28;20120;-70
2022/07/18 07:23:31;;;;;;;6.53;1.63;;;26.80;64.50;;;;;;4176843;28;20586;-69
2022/07/18 07:25:32;;;;;;;1.85;1.08;;;26.70;62.40;;;;;;4193997;28;20032;-69
2022/07/18 07:27:33;;;;;;;1.73;1.00;;;26.70;64.10;;;;;;4165361;28;20088;-70
2022/07/18 07:29:33;;;;;;;4.70;1.70;;;26.70;62.70;;;;;;4176106;28;20045;-70
2022/07/18 07:31:34;;;;;;;4.00;1.30;;;26.70;62.90;;;;;;4177771;28;20492;-69
2022/07/18 07:33:35;;;;;;;4.20;1.83;;;26.80;63.10;;;;;;4179513;28;20036;-67
2022/07/18 07:35:35;;;;;;;4.32;1.40;;;26.80;62.20;;;;;;4178924;28;20377;-67
2022/07/18 07:37:37;;;;;;;2.30;1.50;;;26.90;64.00;;;;;;4177726;28;20040;-67
2022/07/18 07:39:38;;;;;;;3.05;1.60;;;27.00;64.30;;;;;;4188585;28;20039;-67
2022/07/18 07:41:38;;;;;;;2.50;1.30;;;27.00;62.20;;;;;;4195629;28;20036;-67
2022/07/18 07:43:39;;;;;;;2.38;1.17;;;27.10;62.60;;;;;;4185104;28;20044;-67
2022/07/18 07:45:40;;;;;;;2.53;1.40;;;27.10;63.20;;;;;;4160967;28;20533;-67
2022/07/18 07:47:41;;;;;;;2.42;1.33;;;27.20;63.30;;;;;;4171011;28;20041;-67
2022/07/18 07:49:42;;;;;;;2.45;1.23;;;27.30;63.60;;;;;;4178565;28;20193;-67
2022/07/18 07:51:42;;;;;;;3.53;1.60;;;27.30;61.50;;;;;;4178742;28;20379;-67
2022/07/18 07:53:43;;;;;;;2.78;1.63;;;27.30;61.40;;;;;;4177886;28;20033;-67
2022/07/18 07:55:43;;;;;;;5.63;1.70;;;27.40;62.10;;;;;;4176059;28;20082;-67
2022/07/18 07:57:44;;;;;;;1.65;1.10;;;27.50;61.00;;;;;;4177821;28;20392;-67
2022/07/18 07:59:45;;;;;;;3.03;1.35;;;27.60;62.30;;;;;;4178894;28;20175;-67
2022/07/18 08:01:45;;;;;;;2.25;1.10;;;27.60;62.80;;;;;;4178392;28;20033;-67
2022/07/18 08:03:48;;;;;;;3.28;1.45;;;27.70;64.40;;;;;;4176568;28;20033;-67
2022/07/18 08:05:49;;;;;;;;;;;27.80;63.20;;;;;;4177613;28;20036;-69
2022/07/18 08:07:50;;;;;;;4.28;1.80;;;27.80;62.50;;;;;;4177983;28;20389;-67
2022/07/18 08:09:50;;;;;;;2.33;1.33;;;27.90;60.90;;;;;;4178425;28;20032;-68
2022/07/18 08:11:51;;;;;;;3.17;1.60;;;28.00;60.40;;;;;;4176244;28;20506;-67
2022/07/18 08:13:53;;;;;;;3.20;1.85;;;28.00;60.40;;;;;;4158766;28;20037;-67
2022/07/18 08:15:54;;;;;;;3.67;1.60;;;28.00;60.10;;;;;;4175862;28;20029;-67
2022/07/18 08:17:55;;;;;;;7.82;1.73;;;28.00;61.20;;;;;;4175884;28;20057;-67
2022/07/18 08:19:55;;;;;;;3.25;1.50;;;28.00;61.60;;;;;;4178207;28;20172;-67
2022/07/18 08:21:56;;;;;;;6.18;1.70;;;28.10;63.60;;;;;;4178006;28;20033;-67
2022/07/18 08:23:57;;;;;;;3.70;1.50;;;28.20;62.60;;;;;;4178578;28;20439;-67
2022/07/18 08:25:57;;;;;;;5.07;1.42;;;28.20;59.40;;;;;;4177780;28;20056;-67
2022/07/18 08:27:59;;;;;;;2.95;1.45;;;28.20;60.80;;;;;;4181205;28;20127;-67
2022/07/18 08:29:59;;;;;;;2.58;1.38;;;28.30;60.90;;;;;;4178112;28;20484;-67
2022/07/18 08:32:00;;;;;;;3.45;1.52;;;28.30;59.70;;;;;;4177561;28;20081;-67
2022/07/18 08:34:01;;;;;;;3.00;1.40;;;28.40;60.10;;;;;;4178524;28;20040;-67
2022/07/18 08:36:01;;;;;;;2.03;1.10;;;28.40;59.20;;;;;;4177737;28;20061;-67
2022/07/18 08:38:03;;;;;;;6.82;1.50;;;28.50;59.60;;;;;;4160863;28;20396;-67
2022/07/18 08:40:04;;;;;;;2.03;1.08;;;28.60;59.80;;;;;;4177779;28;20400;-67
2022/07/18 08:42:06;;;;;;;3.03;1.27;;;28.60;59.40;;;;;;4179839;28;20032;-66
2022/07/18 08:44:08;;;;;;;4.55;1.13;;;28.70;59.80;;;;;;4179028;28;20488;-67
2022/07/18 08:46:10;;;;;;;1.52;0.90;;;28.80;60.00;;;;;;4175635;28;20029;-67
2022/07/18 08:48:14;;;;;;;1.77;1.30;;;28.90;59.50;;;;;;4176761;28;20378;-67
2022/07/18 08:50:15;;;;;;;3.92;1.65;;;29.00;59.10;;;;;;4177421;28;20037;-67
2022/07/18 08:52:16;;;;;;;1.40;1.13;;;29.00;58.30;;;;;;4178515;28;20068;-67
2022/07/18 08:54:17;;;;;;;2.42;1.27;;;29.10;58.00;;;;;;4178384;28;20040;-67
2022/07/18 08:56:17;;;;;;;3.10;1.15;;;29.20;58.90;;;;;;4177835;28;20037;-67
2022/07/18 08:58:18;;;;;;;1.95;1.13;;;29.30;58.00;;;;;;4175124;28;20093;-67
2022/07/18 09:00:20;;;;;;;1.98;1.30;;;29.30;59.00;;;;;;4177232;28;20043;-67
2022/07/18 09:02:26;;;;;;;3.17;1.02;;;29.40;58.90;;;;;;4175287;28;20041;-68
2022/07/18 09:04:34;;;;;;;1.63;0.85;;;29.50;57.60;;;;;;4177566;28;20036;-67
2022/07/18 09:06:49;;;;;;;2.70;1.33;;;29.50;57.30;;;;;;4174686;28;20040;-67
2022/07/18 09:09:01;;;;;;;1.48;0.95;;;29.60;56.90;;;;;;4175694;28;20542;-67
2022/07/18 09:11:03;;;;;;;3.03;1.20;;;29.70;56.60;;;;;;4166365;28;20029;-67
2022/07/18 09:13:04;;;;;;;1.48;1.00;;;29.70;54.70;;;;;;4158665;28;20343;-67
2022/07/18 09:15:13;;;;;;;2.13;1.35;;;29.70;55.30;;;;;;4172500;28;20039;-67
2022/07/18 09:17:22;;;;;;;3.53;1.27;;;29.80;56.40;;;;;;4174699;28;20028;-67
2022/07/18 09:19:23;;;;;;;4.22;1.45;;;29.90;57.40;;;;;;4174041;28;20045;-67
2022/07/18 09:21:24;;;;;;;2.78;1.27;;;29.90;58.50;;;;;;4174164;28;20632;-67
2022/07/18 09:23:33;;;;;;;3.53;1.00;;;30.00;57.00;;;;;;4173108;28;20044;-67
2022/07/18 09:25:33;;;;;;;1.60;1.08;;;30.10;53.80;;;;;;4174431;28;20029;-67
2022/07/18 09:27:41;;;;;;;2.33;1.17;;;30.10;54.90;;;;;;4173249;28;20052;-66
2022/07/18 09:29:42;;;;;;;3.00;1.27;;;30.20;55.20;;;;;;4173386;28;20542;-67
2022/07/18 09:31:50;;;;;;;1.40;1.08;;;30.30;55.60;;;;;;4173075;28;20033;-67
2022/07/18 09:33:54;;;;;;;0.82;0.80;;;30.40;53.50;;;;;;4184943;28;20120;-67
2022/07/18 09:35:55;;;;;;;2.28;1.15;;;30.40;53.70;;;;;;4192569;28;20032;-67
2022/07/18 09:37:57;;;;;;;2.20;1.10;;;30.50;53.50;;;;;;4177300;28;20480;-67
2022/07/18 09:40:14;;;;;;;;;;;30.50;54.10;;;;;;4178600;28;20041;-67
2022/07/18 09:42:17;;;;;;;1.60;1.00;;;30.60;51.70;;;;;;4177764;28;19947;-67
2022/07/18 09:44:18;;;;;;;;;;;30.60;52.00;;;;;;4178874;28;20043;-67
2022/07/18 09:46:19;;;;;;;1.33;1.05;;;30.60;50.80;;;;;;4177643;28;21866;-66
2022/07/18 09:48:22;;;;;;;2.67;1.20;;;30.70;51.00;;;;;;4178643;28;20079;-67
2022/07/18 09:50:24;;;;;;;2.58;1.08;;;30.70;53.00;;;;;;4180814;28;20124;-67
2022/07/18 09:52:25;;;;;;;2.47;1.20;;;30.70;49.10;;;;;;4180807;28;20033;-66
2022/07/18 09:54:35;;;;;;;1.52;1.17;;;30.70;50.80;;;;;;4178323;28;20121;-67
2022/07/18 09:56:39;;;;;;;2.53;1.38;;;30.70;50.10;;;;;;4175893;28;20067;-67
2022/07/18 09:58:42;;;;;;;1.10;0.90;;;30.80;50.70;;;;;;4177303;28;20128;-67
2022/07/18 10:00:43;;;;;;;2.47;1.35;;;30.90;49.80;;;;;;4175087;28;20036;-67
2022/07/18 10:02:43;;;;;;;2.53;1.27;;;30.90;49.30;;;;;;4179494;28;20088;-67
2022/07/18 10:04:44;;;;;;;3.17;1.27;;;30.90;50.20;;;;;;4180398;28;20033;-67
2022/07/18 10:06:45;;;;;;;1.42;0.98;;;31.00;50.40;;;;;;4174733;28;20083;-67
2022/07/18 10:08:46;;;;;;;1.40;0.88;;;31.00;50.40;;;;;;4177238;28;20037;-67
2022/07/18 10:10:48;;;;;;;3.80;1.00;;;31.00;51.20;;;;;;4180200;28;20071;-67
2022/07/18 10:12:50;;;;;;;3.08;0.90;;;31.20;51.90;;;;;;4184487;28;20421;-67
2022/07/18 10:14:51;;;;;;;;;;;31.20;50.30;;;;;;4181194;28;20380;-68
2022/07/18 10:16:52;;;;;;;1.50;0.73;;;31.20;50.50;;;;;;4178231;28;19908;-67
2022/07/18 10:18:52;;;;;;;3.65;1.20;;;31.30;51.60;;;;;;4179614;28;20064;-67
2022/07/18 10:20:58;;;;;;;3.13;1.10;;;31.40;52.20;;;;;;4180761;28;20037;-67
2022/07/18 10:23:07;;;;;;;2.45;1.10;;;31.50;51.80;;;;;;4181296;28;20029;-67
2022/07/18 10:25:10;;;;;;;3.00;0.98;;;31.50;49.70;;;;;;4180237;28;20025;-67
2022/07/18 10:27:13;;;;;;;1.95;1.33;;;31.50;50.10;;;;;;4179225;28;20087;-67
2022/07/18 10:29:15;;;;;;;3.45;1.33;;;31.60;51.20;;;;;;4184271;28;20055;-67
2022/07/18 10:31:16;;;;;;;1.98;1.10;;;31.60;52.30;;;;;;4183576;28;20503;-67
2022/07/18 10:33:43;;;;;;;1.42;0.88;;;31.60;50.70;;;;;;4180355;28;20064;-67
2022/07/18 10:36:05;;;;;;;2.47;1.52;;;31.70;50.90;;;;;;4178559;28;20056;-67